LFBT/LDE METAR and TAF weather

Enter ICAO airport designator
Station Type Date Time Source
LFBT METAR 2019/08/25 18:00 UTC NOAA

LFBT 251800Z AUTO 05005KT CAVOK 27/19 Q1017 NOSIG


Station Type Date Time Source
LFBT Decoded METAR 2019/08/25 18:00 UTC NOAA

Station name not available
Aug 25, 2019 - 02:00 PM EDT / 2019.08.25 1800 UTC
Wind: from the NE (050 degrees) at 6 MPH (5 KT):0
Visibility: greater than 7 mile(s):0
Temperature: 80 F (27 C)
Dew Point: 66 F (19 C)
Relative Humidity: 61%
Pressure (altimeter): 30.03 in. Hg (1017 hPa)
ob: LFBT 251800Z AUTO 05005KT CAVOK 27/19 Q1017 NOSIG
cycle: 18

Station Type Date Time Source
LFBT TAF 2019/08/25 18:46 UTC NOAA

TAF LFBT 251700Z 2518/2618 07005KT CAVOK
BECMG 2519/2521 VRB02KT
TEMPO 2523/2602 27010KT PROB40 2600/2607 BKN010 PROB30
TEMPO 2603/2606 4000 BR

Example: see airport list